sensor_id;sensor_type;location;lat;lon;timestamp;P1;durP1;ratioP1;P2;durP2;ratioP2
59571;SDS011;74587;45.880;11.484;2023-12-20T00:01:38;1.90;;;0.10;;
59571;SDS011;74587;45.880;11.484;2023-12-20T00:04:04;1.08;;;0.10;;
59571;SDS011;74587;45.880;11.484;2023-12-20T00:06:30;1.30;;;0.10;;
59571;SDS011;74587;45.880;11.484;2023-12-20T00:08:59;1.03;;;0.10;;
59571;SDS011;74587;45.880;11.484;2023-12-20T00:11:25;1.33;;;0.10;;
59571;SDS011;74587;45.880;11.484;2023-12-20T00:13:54;1.15;;;0.15;;
59571;SDS011;74587;45.880;11.484;2023-12-20T00:16:20;1.08;;;0.10;;
59571;SDS011;74587;45.880;11.484;2023-12-20T00:18:46;0.93;;;0.07;;
59571;SDS011;74587;45.880;11.484;2023-12-20T00:21:12;0.70;;;0.00;;
59571;SDS011;74587;45.880;11.484;2023-12-20T00:23:41;1.63;;;0.10;;
59571;SDS011;74587;45.880;11.484;2023-12-20T00:26:06;1.00;;;0.10;;
59571;SDS011;74587;45.880;11.484;2023-12-20T00:28:32;0.45;;;0.00;;
59571;SDS011;74587;45.880;11.484;2023-12-20T00:31:01;1.30;;;0.07;;
59571;SDS011;74587;45.880;11.484;2023-12-20T00:33:27;0.57;;;0.00;;
59571;SDS011;74587;45.880;11.484;2023-12-20T00:35:54;1.17;;;0.10;;
59571;SDS011;74587;45.880;11.484;2023-12-20T00:38:20;1.17;;;0.10;;
59571;SDS011;74587;45.880;11.484;2023-12-20T00:40:48;1.20;;;0.10;;
59571;SDS011;74587;45.880;11.484;2023-12-20T00:43:15;1.05;;;0.00;;
59571;SDS011;74587;45.880;11.484;2023-12-20T00:45:40;1.83;;;0.10;;
59571;SDS011;74587;45.880;11.484;2023-12-20T00:48:06;0.88;;;0.00;;
59571;SDS011;74587;45.880;11.484;2023-12-20T00:50:32;1.03;;;0.00;;
59571;SDS011;74587;45.880;11.484;2023-12-20T00:52:58;0.82;;;0.08;;
59571;SDS011;74587;45.880;11.484;2023-12-20T00:55:24;1.07;;;0.00;;
59571;SDS011;74587;45.880;11.484;2023-12-20T00:57:50;1.40;;;0.00;;
59571;SDS011;74587;45.880;11.484;2023-12-20T01:00:15;1.77;;;0.10;;
59571;SDS011;74587;45.880;11.484;2023-12-20T01:02:41;0.93;;;0.00;;
59571;SDS011;74587;45.880;11.484;2023-12-20T01:05:07;1.23;;;0.03;;
59571;SDS011;74587;45.880;11.484;2023-12-20T01:07:34;0.68;;;0.00;;
59571;SDS011;74587;45.880;11.484;2023-12-20T01:10:00;1.13;;;0.00;;
59571;SDS011;74587;45.880;11.484;2023-12-20T01:12:26;0.87;;;0.00;;
59571;SDS011;74587;45.880;11.484;2023-12-20T01:14:52;0.65;;;0.00;;
59571;SDS011;74587;45.880;11.484;2023-12-20T01:17:17;1.07;;;0.10;;
59571;SDS011;74587;45.880;11.484;2023-12-20T01:19:43;1.38;;;0.10;;
59571;SDS011;74587;45.880;11.484;2023-12-20T01:22:09;1.43;;;0.10;;
59571;SDS011;74587;45.880;11.484;2023-12-20T01:24:34;2.65;;;0.30;;
59571;SDS011;74587;45.880;11.484;2023-12-20T01:27:00;2.43;;;0.20;;
59571;SDS011;74587;45.880;11.484;2023-12-20T01:29:26;2.60;;;0.20;;
59571;SDS011;74587;45.880;11.484;2023-12-20T01:31:52;1.67;;;0.10;;
59571;SDS011;74587;45.880;11.484;2023-12-20T01:34:18;1.25;;;0.10;;
59571;SDS011;74587;45.880;11.484;2023-12-20T01:36:43;1.10;;;0.10;;
59571;SDS011;74587;45.880;11.484;2023-12-20T01:39:09;0.90;;;0.10;;
59571;SDS011;74587;45.880;11.484;2023-12-20T01:41:35;1.70;;;0.00;;
59571;SDS011;74587;45.880;11.484;2023-12-20T01:44:21;1.13;;;0.20;;
59571;SDS011;74587;45.880;11.484;2023-12-20T01:46:46;1.63;;;0.00;;
59571;SDS011;74587;45.880;11.484;2023-12-20T01:49:13;1.40;;;0.10;;
59571;SDS011;74587;45.880;11.484;2023-12-20T01:51:39;2.15;;;0.10;;
59571;SDS011;74587;45.880;11.484;2023-12-20T01:54:05;1.70;;;0.10;;
59571;SDS011;74587;45.880;11.484;2023-12-20T01:56:31;1.27;;;0.10;;
59571;SDS011;74587;45.880;11.484;2023-12-20T01:58:58;0.60;;;0.00;;
59571;SDS011;74587;45.880;11.484;2023-12-20T02:01:24;1.35;;;0.10;;
59571;SDS011;74587;45.880;11.484;2023-12-20T02:03:50;1.20;;;0.00;;
59571;SDS011;74587;45.880;11.484;2023-12-20T02:06:16;0.98;;;0.00;;
59571;SDS011;74587;45.880;11.484;2023-12-20T02:08:43;0.98;;;0.00;;
59571;SDS011;74587;45.880;11.484;2023-12-20T02:11:10;0.50;;;0.00;;
59571;SDS011;74587;45.880;11.484;2023-12-20T02:13:35;1.13;;;0.00;;
59571;SDS011;74587;45.880;11.484;2023-12-20T02:16:01;0.28;;;0.00;;
59571;SDS011;74587;45.880;11.484;2023-12-20T02:18:27;1.02;;;0.08;;
59571;SDS011;74587;45.880;11.484;2023-12-20T02:20:53;0.80;;;0.10;;
59571;SDS011;74587;45.880;11.484;2023-12-20T02:23:19;0.63;;;0.03;;
59571;SDS011;74587;45.880;11.484;2023-12-20T02:25:45;0.77;;;0.00;;
59571;SDS011;74587;45.880;11.484;2023-12-20T02:28:11;0.87;;;0.00;;
59571;SDS011;74587;45.880;11.484;2023-12-20T02:30:37;1.48;;;0.10;;
59571;SDS011;74587;45.880;11.484;2023-12-20T02:33:03;0.33;;;0.00;;
59571;SDS011;74587;45.880;11.484;2023-12-20T02:35:32;0.80;;;0.03;;
59571;SDS011;74587;45.880;11.484;2023-12-20T02:37:58;0.90;;;0.00;;
59571;SDS011;74587;45.880;11.484;2023-12-20T02:40:24;0.97;;;0.00;;
59571;SDS011;74587;45.880;11.484;2023-12-20T02:42:50;1.20;;;0.00;;
59571;SDS011;74587;45.880;11.484;2023-12-20T02:45:15;1.13;;;0.00;;
59571;SDS011;74587;45.880;11.484;2023-12-20T02:47:41;0.45;;;0.00;;
59571;SDS011;74587;45.880;11.484;2023-12-20T02:52:44;1.53;;;0.03;;
59571;SDS011;74587;45.880;11.484;2023-12-20T02:58:09;0.70;;;0.00;;
59571;SDS011;74587;45.880;11.484;2023-12-20T03:00:35;1.00;;;0.10;;
59571;SDS011;74587;45.880;11.484;2023-12-20T03:03:23;1.03;;;0.10;;
59571;SDS011;74587;45.880;11.484;2023-12-20T03:11:28;1.60;;;0.00;;
59571;SDS011;74587;45.880;11.484;2023-12-20T03:13:54;7.97;;;0.40;;
59571;SDS011;74587;45.880;11.484;2023-12-20T03:16:20;4.37;;;0.10;;
59571;SDS011;74587;45.880;11.484;2023-12-20T03:18:46;1.77;;;0.00;;
59571;SDS011;74587;45.880;11.484;2023-12-20T03:21:12;0.20;;;0.00;;
59571;SDS011;74587;45.880;11.484;2023-12-20T03:23:41;2.85;;;0.10;;
59571;SDS011;74587;45.880;11.484;2023-12-20T03:26:07;0.70;;;0.00;;
59571;SDS011;74587;45.880;11.484;2023-12-20T03:28:33;0.50;;;0.00;;
59571;SDS011;74587;45.880;11.484;2023-12-20T03:31:01;1.20;;;0.10;;
59571;SDS011;74587;45.880;11.484;2023-12-20T03:33:27;0.73;;;0.00;;
59571;SDS011;74587;45.880;11.484;2023-12-20T03:35:53;0.65;;;0.00;;
59571;SDS011;74587;45.880;11.484;2023-12-20T03:38:20;1.97;;;0.23;;
59571;SDS011;74587;45.880;11.484;2023-12-20T03:40:46;0.52;;;0.00;;
59571;SDS011;74587;45.880;11.484;2023-12-20T03:43:12;1.27;;;0.03;;
59571;SDS011;74587;45.880;11.484;2023-12-20T03:45:38;1.10;;;0.00;;
59571;SDS011;74587;45.880;11.484;2023-12-20T03:48:04;0.60;;;0.00;;
59571;SDS011;74587;45.880;11.484;2023-12-20T03:50:30;0.45;;;0.00;;
59571;SDS011;74587;45.880;11.484;2023-12-20T03:52:56;0.77;;;0.00;;
59571;SDS011;74587;45.880;11.484;2023-12-20T03:55:22;0.20;;;0.00;;
59571;SDS011;74587;45.880;11.484;2023-12-20T03:57:48;2.17;;;0.10;;
59571;SDS011;74587;45.880;11.484;2023-12-20T04:00:14;0.75;;;0.10;;
59571;SDS011;74587;45.880;11.484;2023-12-20T04:02:41;1.77;;;0.10;;
59571;SDS011;74587;45.880;11.484;2023-12-20T04:05:07;1.15;;;0.00;;
59571;SDS011;74587;45.880;11.484;2023-12-20T04:07:37;1.10;;;0.00;;
59571;SDS011;74587;45.880;11.484;2023-12-20T04:10:04;6.32;;;1.13;;
59571;SDS011;74587;45.880;11.484;2023-12-20T04:12:32;1.08;;;0.03;;
59571;SDS011;74587;45.880;11.484;2023-12-20T04:14:58;0.90;;;0.00;;
59571;SDS011;74587;45.880;11.484;2023-12-20T04:17:23;0.60;;;0.00;;
59571;SDS011;74587;45.880;11.484;2023-12-20T04:19:52;2.15;;;0.52;;
59571;SDS011;74587;45.880;11.484;2023-12-20T04:22:18;2.80;;;0.10;;
59571;SDS011;74587;45.880;11.484;2023-12-20T04:24:44;1.50;;;0.10;;
59571;SDS011;74587;45.880;11.484;2023-12-20T04:27:10;1.50;;;0.08;;
59571;SDS011;74587;45.880;11.484;2023-12-20T04:29:36;1.20;;;0.00;;
59571;SDS011;74587;45.880;11.484;2023-12-20T04:32:02;1.10;;;0.10;;
59571;SDS011;74587;45.880;11.484;2023-12-20T04:34:28;0.90;;;0.10;;
59571;SDS011;74587;45.880;11.484;2023-12-20T04:36:54;0.65;;;0.00;;
59571;SDS011;74587;45.880;11.484;2023-12-20T04:39:20;3.35;;;0.30;;
59571;SDS011;74587;45.880;11.484;2023-12-20T04:41:46;1.07;;;0.00;;
59571;SDS011;74587;45.880;11.484;2023-12-20T04:44:15;4.35;;;0.10;;
59571;SDS011;74587;45.880;11.484;2023-12-20T04:46:43;1.10;;;0.10;;
59571;SDS011;74587;45.880;11.484;2023-12-20T04:49:09;1.08;;;0.10;;
59571;SDS011;74587;45.880;11.484;2023-12-20T04:51:35;1.27;;;0.10;;
59571;SDS011;74587;45.880;11.484;2023-12-20T04:54:01;1.20;;;0.10;;
59571;SDS011;74587;45.880;11.484;2023-12-20T04:56:28;1.58;;;0.10;;
59571;SDS011;74587;45.880;11.484;2023-12-20T04:58:56;1.67;;;0.10;;
59571;SDS011;74587;45.880;11.484;2023-12-20T05:01:22;1.48;;;0.13;;
59571;SDS011;74587;45.880;11.484;2023-12-20T05:03:48;3.40;;;0.43;;
59571;SDS011;74587;45.880;11.484;2023-12-20T05:06:14;5.72;;;0.40;;
59571;SDS011;74587;45.880;11.484;2023-12-20T05:08:40;3.00;;;0.20;;
59571;SDS011;74587;45.880;11.484;2023-12-20T05:11:06;3.60;;;0.60;;
59571;SDS011;74587;45.880;11.484;2023-12-20T05:13:32;5.63;;;1.20;;
59571;SDS011;74587;45.880;11.484;2023-12-20T05:15:58;3.53;;;0.70;;
59571;SDS011;74587;45.880;11.484;2023-12-20T05:18:24;3.25;;;0.50;;
59571;SDS011;74587;45.880;11.484;2023-12-20T05:20:50;2.30;;;0.20;;
59571;SDS011;74587;45.880;11.484;2023-12-20T05:23:16;2.40;;;0.50;;
59571;SDS011;74587;45.880;11.484;2023-12-20T05:25:43;3.83;;;0.93;;
59571;SDS011;74587;45.880;11.484;2023-12-20T05:28:08;6.63;;;2.38;;
59571;SDS011;74587;45.880;11.484;2023-12-20T05:30:34;6.50;;;2.80;;
59571;SDS011;74587;45.880;11.484;2023-12-20T05:33:00;5.97;;;1.17;;
59571;SDS011;74587;45.880;11.484;2023-12-20T05:35:26;4.55;;;0.68;;
59571;SDS011;74587;45.880;11.484;2023-12-20T05:37:52;2.80;;;0.50;;
59571;SDS011;74587;45.880;11.484;2023-12-20T05:40:17;2.08;;;0.20;;
59571;SDS011;74587;45.880;11.484;2023-12-20T05:42:43;1.43;;;0.10;;
59571;SDS011;74587;45.880;11.484;2023-12-20T05:45:09;0.82;;;0.10;;
59571;SDS011;74587;45.880;11.484;2023-12-20T05:47:36;1.48;;;0.10;;
59571;SDS011;74587;45.880;11.484;2023-12-20T05:50:01;1.83;;;0.10;;
59571;SDS011;74587;45.880;11.484;2023-12-20T05:52:27;2.65;;;0.25;;
59571;SDS011;74587;45.880;11.484;2023-12-20T05:54:53;1.33;;;0.10;;
59571;SDS011;74587;45.880;11.484;2023-12-20T05:57:20;1.30;;;0.15;;
59571;SDS011;74587;45.880;11.484;2023-12-20T05:59:46;1.50;;;0.10;;
59571;SDS011;74587;45.880;11.484;2023-12-20T06:02:12;3.53;;;0.20;;
59571;SDS011;74587;45.880;11.484;2023-12-20T06:04:43;3.33;;;0.30;;
59571;SDS011;74587;45.880;11.484;2023-12-20T06:07:12;4.47;;;0.15;;
59571;SDS011;74587;45.880;11.484;2023-12-20T06:09:38;1.38;;;0.08;;
59571;SDS011;74587;45.880;11.484;2023-12-20T06:12:04;3.63;;;0.10;;
59571;SDS011;74587;45.880;11.484;2023-12-20T06:14:30;0.82;;;0.10;;
59571;SDS011;74587;45.880;11.484;2023-12-20T06:16:57;1.25;;;0.00;;
59571;SDS011;74587;45.880;11.484;2023-12-20T06:19:33;1.92;;;0.10;;
59571;SDS011;74587;45.880;11.484;2023-12-20T06:21:59;1.43;;;0.10;;
59571;SDS011;74587;45.880;11.484;2023-12-20T06:24:25;2.08;;;0.10;;
59571;SDS011;74587;45.880;11.484;2023-12-20T06:26:53;0.90;;;0.03;;
59571;SDS011;74587;45.880;11.484;2023-12-20T06:29:20;2.25;;;0.10;;
59571;SDS011;74587;45.880;11.484;2023-12-20T06:31:46;1.07;;;0.10;;
59571;SDS011;74587;45.880;11.484;2023-12-20T06:34:12;2.88;;;0.35;;
59571;SDS011;74587;45.880;11.484;2023-12-20T06:36:37;2.97;;;0.40;;
59571;SDS011;74587;45.880;11.484;2023-12-20T06:39:03;1.57;;;0.10;;
59571;SDS011;74587;45.880;11.484;2023-12-20T06:41:30;2.00;;;0.10;;
59571;SDS011;74587;45.880;11.484;2023-12-20T06:43:55;2.65;;;0.20;;
59571;SDS011;74587;45.880;11.484;2023-12-20T06:46:21;2.95;;;0.40;;
59571;SDS011;74587;45.880;11.484;2023-12-20T06:48:47;2.93;;;0.50;;
59571;SDS011;74587;45.880;11.484;2023-12-20T06:51:16;2.10;;;0.52;;
59571;SDS011;74587;45.880;11.484;2023-12-20T06:53:42;2.15;;;0.13;;
59571;SDS011;74587;45.880;11.484;2023-12-20T06:56:10;2.07;;;0.10;;
59571;SDS011;74587;45.880;11.484;2023-12-20T06:58:37;4.68;;;0.40;;
59571;SDS011;74587;45.880;11.484;2023-12-20T07:01:03;3.15;;;0.40;;
59571;SDS011;74587;45.880;11.484;2023-12-20T07:03:30;5.28;;;0.60;;
59571;SDS011;74587;45.880;11.484;2023-12-20T07:05:56;3.13;;;0.10;;
59571;SDS011;74587;45.880;11.484;2023-12-20T07:08:22;1.60;;;0.10;;
59571;SDS011;74587;45.880;11.484;2023-12-20T07:10:48;1.83;;;0.10;;
59571;SDS011;74587;45.880;11.484;2023-12-20T07:15:50;3.22;;;0.60;;
59571;SDS011;74587;45.880;11.484;2023-12-20T07:21:13;1.85;;;0.20;;
59571;SDS011;74587;45.880;11.484;2023-12-20T07:43:14;1.88;;;0.20;;
59571;SDS011;74587;45.880;11.484;2023-12-20T07:45:40;1.60;;;0.10;;
59571;SDS011;74587;45.880;11.484;2023-12-20T07:48:06;3.50;;;0.20;;
59571;SDS011;74587;45.880;11.484;2023-12-20T07:50:34;6.88;;;0.60;;
59571;SDS011;74587;45.880;11.484;2023-12-20T07:53:01;11.68;;;3.05;;
59571;SDS011;74587;45.880;11.484;2023-12-20T07:55:32;3.83;;;0.50;;
59571;SDS011;74587;45.880;11.484;2023-12-20T08:00:46;6.70;;;0.95;;
59571;SDS011;74587;45.880;11.484;2023-12-20T08:03:12;2.80;;;0.30;;
59571;SDS011;74587;45.880;11.484;2023-12-20T08:05:38;2.60;;;0.20;;
59571;SDS011;74587;45.880;11.484;2023-12-20T08:08:05;8.68;;;1.83;;
59571;SDS011;74587;45.880;11.484;2023-12-20T08:10:35;7.85;;;1.20;;
59571;SDS011;74587;45.880;11.484;2023-12-20T08:37:16;13.95;;;1.20;;
59571;SDS011;74587;45.880;11.484;2023-12-20T08:52:47;12.27;;;2.63;;
59571;SDS011;74587;45.880;11.484;2023-12-20T11:14:05;14.77;;;4.05;;
59571;SDS011;74587;45.880;11.484;2023-12-20T11:16:36;8.65;;;3.13;;
59571;SDS011;74587;45.880;11.484;2023-12-20T11:19:05;9.70;;;2.20;;
59571;SDS011;74587;45.880;11.484;2023-12-20T11:21:31;6.57;;;1.95;;
59571;SDS011;74587;45.880;11.484;2023-12-20T11:23:57;8.17;;;2.23;;
59571;SDS011;74587;45.880;11.484;2023-12-20T11:26:27;6.55;;;2.30;;
59571;SDS011;74587;45.880;11.484;2023-12-20T11:31:56;7.63;;;3.13;;
59571;SDS011;74587;45.880;11.484;2023-12-20T11:34:22;11.00;;;4.27;;
59571;SDS011;74587;45.880;11.484;2023-12-20T11:36:56;10.43;;;3.53;;
59571;SDS011;74587;45.880;11.484;2023-12-20T11:39:23;15.43;;;4.75;;
59571;SDS011;74587;45.880;11.484;2023-12-20T11:41:51;9.83;;;3.40;;
59571;SDS011;74587;45.880;11.484;2023-12-20T11:44:17;7.93;;;3.20;;
59571;SDS011;74587;45.880;11.484;2023-12-20T11:46:44;7.40;;;2.75;;
59571;SDS011;74587;45.880;11.484;2023-12-20T11:49:09;8.20;;;2.30;;
59571;SDS011;74587;45.880;11.484;2023-12-20T11:51:35;10.03;;;2.60;;
59571;SDS011;74587;45.880;11.484;2023-12-20T11:54:05;9.75;;;2.42;;
59571;SDS011;74587;45.880;11.484;2023-12-20T11:56:31;14.07;;;3.57;;
59571;SDS011;74587;45.880;11.484;2023-12-20T11:58:57;8.25;;;1.70;;
59571;SDS011;74587;45.880;11.484;2023-12-20T12:01:22;6.95;;;1.60;;
59571;SDS011;74587;45.880;11.484;2023-12-20T12:04:01;11.63;;;2.28;;
59571;SDS011;74587;45.880;11.484;2023-12-20T12:06:28;10.60;;;2.50;;
59571;SDS011;74587;45.880;11.484;2023-12-20T12:08:54;14.80;;;2.35;;
59571;SDS011;74587;45.880;11.484;2023-12-20T12:11:20;14.23;;;2.08;;
59571;SDS011;74587;45.880;11.484;2023-12-20T12:13:47;25.13;;;3.43;;
59571;SDS011;74587;45.880;11.484;2023-12-20T12:16:16;11.38;;;2.20;;
59571;SDS011;74587;45.880;11.484;2023-12-20T12:18:45;4.30;;;1.15;;
59571;SDS011;74587;45.880;11.484;2023-12-20T12:21:18;4.05;;;0.40;;
59571;SDS011;74587;45.880;11.484;2023-12-20T12:23:45;3.50;;;0.40;;
59571;SDS011;74587;45.880;11.484;2023-12-20T12:26:11;4.77;;;0.80;;
59571;SDS011;74587;45.880;11.484;2023-12-20T12:28:39;7.88;;;1.23;;
59571;SDS011;74587;45.880;11.484;2023-12-20T12:31:06;9.80;;;1.42;;
59571;SDS011;74587;45.880;11.484;2023-12-20T12:33:33;10.48;;;1.60;;
59571;SDS011;74587;45.880;11.484;2023-12-20T12:36:00;16.00;;;3.93;;
59571;SDS011;74587;45.880;11.484;2023-12-20T12:38:26;14.45;;;3.45;;
59571;SDS011;74587;45.880;11.484;2023-12-20T12:40:52;14.52;;;3.85;;
59571;SDS011;74587;45.880;11.484;2023-12-20T12:43:19;10.35;;;2.35;;
59571;SDS011;74587;45.880;11.484;2023-12-20T12:45:47;16.52;;;8.23;;
59571;SDS011;74587;45.880;11.484;2023-12-20T12:48:14;8.40;;;3.30;;
59571;SDS011;74587;45.880;11.484;2023-12-20T12:50:39;24.30;;;5.18;;
59571;SDS011;74587;45.880;11.484;2023-12-20T12:53:05;9.73;;;3.00;;
59571;SDS011;74587;45.880;11.484;2023-12-20T12:55:31;31.47;;;8.50;;
59571;SDS011;74587;45.880;11.484;2023-12-20T12:57:57;9.88;;;3.40;;
59571;SDS011;74587;45.880;11.484;2023-12-20T13:00:22;20.20;;;9.07;;
59571;SDS011;74587;45.880;11.484;2023-12-20T13:02:49;16.25;;;6.72;;
59571;SDS011;74587;45.880;11.484;2023-12-20T13:05:15;22.85;;;10.52;;
59571;SDS011;74587;45.880;11.484;2023-12-20T13:07:42;16.30;;;9.55;;
59571;SDS011;74587;45.880;11.484;2023-12-20T13:10:10;18.67;;;6.30;;
59571;SDS011;74587;45.880;11.484;2023-12-20T13:12:36;11.00;;;4.40;;
59571;SDS011;74587;45.880;11.484;2023-12-20T13:15:02;10.23;;;4.07;;
59571;SDS011;74587;45.880;11.484;2023-12-20T13:17:29;11.38;;;4.53;;
59571;SDS011;74587;45.880;11.484;2023-12-20T13:19:55;12.37;;;6.17;;
59571;SDS011;74587;45.880;11.484;2023-12-20T13:22:20;10.75;;;5.90;;
59571;SDS011;74587;45.880;11.484;2023-12-20T13:24:46;13.60;;;6.07;;
59571;SDS011;74587;45.880;11.484;2023-12-20T13:27:12;23.35;;;7.07;;
59571;SDS011;74587;45.880;11.484;2023-12-20T13:29:38;9.82;;;3.67;;
59571;SDS011;74587;45.880;11.484;2023-12-20T13:32:03;13.30;;;4.37;;
59571;SDS011;74587;45.880;11.484;2023-12-20T13:34:29;17.55;;;9.50;;
59571;SDS011;74587;45.880;11.484;2023-12-20T13:36:55;16.53;;;6.60;;
59571;SDS011;74587;45.880;11.484;2023-12-20T13:39:21;11.40;;;6.10;;
59571;SDS011;74587;45.880;11.484;2023-12-20T13:41:47;11.38;;;5.68;;
59571;SDS011;74587;45.880;11.484;2023-12-20T13:44:13;15.50;;;6.07;;
59571;SDS011;74587;45.880;11.484;2023-12-20T13:46:40;10.00;;;4.25;;
59571;SDS011;74587;45.880;11.484;2023-12-20T13:49:06;8.70;;;2.60;;
59571;SDS011;74587;45.880;11.484;2023-12-20T13:51:31;6.67;;;1.40;;
59571;SDS011;74587;45.880;11.484;2023-12-20T13:53:57;4.38;;;0.85;;
59571;SDS011;74587;45.880;11.484;2023-12-20T13:56:24;7.22;;;1.35;;
59571;SDS011;74587;45.880;11.484;2023-12-20T13:58:50;4.25;;;1.00;;
59571;SDS011;74587;45.880;11.484;2023-12-20T14:01:16;4.27;;;1.00;;
59571;SDS011;74587;45.880;11.484;2023-12-20T14:03:41;4.70;;;0.90;;
59571;SDS011;74587;45.880;11.484;2023-12-20T14:06:07;3.73;;;0.90;;
59571;SDS011;74587;45.880;11.484;2023-12-20T14:08:33;5.60;;;0.90;;
59571;SDS011;74587;45.880;11.484;2023-12-20T14:10:59;4.10;;;0.80;;
59571;SDS011;74587;45.880;11.484;2023-12-20T14:13:26;4.97;;;0.82;;
59571;SDS011;74587;45.880;11.484;2023-12-20T14:15:52;5.43;;;1.15;;
59571;SDS011;74587;45.880;11.484;2023-12-20T14:18:19;4.38;;;0.80;;
59571;SDS011;74587;45.880;11.484;2023-12-20T14:20:45;4.90;;;1.03;;
59571;SDS011;74587;45.880;11.484;2023-12-20T14:23:12;7.07;;;1.67;;
59571;SDS011;74587;45.880;11.484;2023-12-20T14:25:40;11.07;;;4.15;;
59571;SDS011;74587;45.880;11.484;2023-12-20T14:28:06;16.83;;;5.57;;
59571;SDS011;74587;45.880;11.484;2023-12-20T14:30:32;31.70;;;10.10;;
59571;SDS011;74587;45.880;11.484;2023-12-20T14:33:01;17.48;;;8.13;;
59571;SDS011;74587;45.880;11.484;2023-12-20T14:35:27;14.18;;;5.78;;
59571;SDS011;74587;45.880;11.484;2023-12-20T14:37:52;10.00;;;3.33;;
59571;SDS011;74587;45.880;11.484;2023-12-20T14:40:18;8.60;;;2.47;;
59571;SDS011;74587;45.880;11.484;2023-12-20T14:42:45;6.60;;;2.20;;
59571;SDS011;74587;45.880;11.484;2023-12-20T14:45:11;8.95;;;2.38;;
59571;SDS011;74587;45.880;11.484;2023-12-20T14:47:38;9.88;;;3.17;;
59571;SDS011;74587;45.880;11.484;2023-12-20T14:50:04;7.33;;;2.20;;
59571;SDS011;74587;45.880;11.484;2023-12-20T14:52:31;9.67;;;3.07;;
59571;SDS011;74587;45.880;11.484;2023-12-20T14:54:58;13.45;;;2.38;;
59571;SDS011;74587;45.880;11.484;2023-12-20T14:57:25;9.45;;;2.42;;
59571;SDS011;74587;45.880;11.484;2023-12-20T14:59:51;8.35;;;1.67;;
59571;SDS011;74587;45.880;11.484;2023-12-20T15:02:17;8.27;;;2.33;;
59571;SDS011;74587;45.880;11.484;2023-12-20T15:04:43;9.13;;;2.73;;
59571;SDS011;74587;45.880;11.484;2023-12-20T15:07:08;8.80;;;2.97;;
59571;SDS011;74587;45.880;11.484;2023-12-20T15:09:34;8.60;;;2.63;;
59571;SDS011;74587;45.880;11.484;2023-12-20T15:12:00;6.90;;;2.50;;
59571;SDS011;74587;45.880;11.484;2023-12-20T15:14:26;9.57;;;2.60;;
59571;SDS011;74587;45.880;11.484;2023-12-20T15:16:53;8.75;;;2.67;;
59571;SDS011;74587;45.880;11.484;2023-12-20T15:19:20;14.30;;;3.80;;
59571;SDS011;74587;45.880;11.484;2023-12-20T15:21:47;17.15;;;4.25;;
59571;SDS011;74587;45.880;11.484;2023-12-20T15:24:12;12.07;;;3.67;;
59571;SDS011;74587;45.880;11.484;2023-12-20T15:26:41;8.80;;;2.23;;
59571;SDS011;74587;45.880;11.484;2023-12-20T15:29:08;6.75;;;2.10;;
59571;SDS011;74587;45.880;11.484;2023-12-20T15:31:36;8.10;;;1.55;;
59571;SDS011;74587;45.880;11.484;2023-12-20T15:34:06;5.32;;;1.30;;
59571;SDS011;74587;45.880;11.484;2023-12-20T15:36:32;5.40;;;1.93;;
59571;SDS011;74587;45.880;11.484;2023-12-20T15:38:58;8.70;;;2.58;;
59571;SDS011;74587;45.880;11.484;2023-12-20T15:41:23;11.40;;;4.20;;
59571;SDS011;74587;45.880;11.484;2023-12-20T15:43:49;9.35;;;2.60;;
59571;SDS011;74587;45.880;11.484;2023-12-20T15:46:15;18.53;;;9.23;;
59571;SDS011;74587;45.880;11.484;2023-12-20T15:48:41;24.40;;;11.45;;
59571;SDS011;74587;45.880;11.484;2023-12-20T15:51:07;16.92;;;6.45;;
59571;SDS011;74587;45.880;11.484;2023-12-20T15:53:34;14.40;;;5.60;;
59571;SDS011;74587;45.880;11.484;2023-12-20T15:56:01;13.43;;;4.97;;
59571;SDS011;74587;45.880;11.484;2023-12-20T15:58:27;12.32;;;4.72;;
59571;SDS011;74587;45.880;11.484;2023-12-20T16:00:55;11.52;;;4.60;;
59571;SDS011;74587;45.880;11.484;2023-12-20T16:03:21;9.10;;;3.67;;
59571;SDS011;74587;45.880;11.484;2023-12-20T16:05:47;8.17;;;3.40;;
59571;SDS011;74587;45.880;11.484;2023-12-20T16:08:12;10.90;;;5.47;;
59571;SDS011;74587;45.880;11.484;2023-12-20T16:10:39;13.18;;;5.93;;
59571;SDS011;74587;45.880;11.484;2023-12-20T16:13:05;14.30;;;7.07;;
59571;SDS011;74587;45.880;11.484;2023-12-20T16:15:31;16.67;;;7.45;;
59571;SDS011;74587;45.880;11.484;2023-12-20T16:17:57;15.63;;;5.53;;
59571;SDS011;74587;45.880;11.484;2023-12-20T16:20:23;22.93;;;9.83;;
59571;SDS011;74587;45.880;11.484;2023-12-20T16:22:49;15.73;;;7.53;;
59571;SDS011;74587;45.880;11.484;2023-12-20T16:25:15;16.38;;;7.95;;
59571;SDS011;74587;45.880;11.484;2023-12-20T16:27:41;16.42;;;6.78;;
59571;SDS011;74587;45.880;11.484;2023-12-20T16:30:08;12.88;;;6.20;;
59571;SDS011;74587;45.880;11.484;2023-12-20T16:32:34;12.83;;;5.47;;
59571;SDS011;74587;45.880;11.484;2023-12-20T16:35:00;16.02;;;5.90;;
59571;SDS011;74587;45.880;11.484;2023-12-20T16:37:26;14.27;;;6.40;;
59571;SDS011;74587;45.880;11.484;2023-12-20T16:39:52;15.07;;;6.00;;
59571;SDS011;74587;45.880;11.484;2023-12-20T16:42:19;12.52;;;4.82;;
59571;SDS011;74587;45.880;11.484;2023-12-20T16:44:44;15.60;;;5.40;;
59571;SDS011;74587;45.880;11.484;2023-12-20T16:47:10;14.10;;;5.13;;
59571;SDS011;74587;45.880;11.484;2023-12-20T16:49:36;12.98;;;5.88;;
59571;SDS011;74587;45.880;11.484;2023-12-20T16:52:02;10.10;;;4.73;;
59571;SDS011;74587;45.880;11.484;2023-12-20T16:54:28;10.90;;;4.20;;
59571;SDS011;74587;45.880;11.484;2023-12-20T16:56:55;18.38;;;5.20;;
59571;SDS011;74587;45.880;11.484;2023-12-20T16:59:21;13.00;;;4.00;;
59571;SDS011;74587;45.880;11.484;2023-12-20T17:01:47;11.47;;;4.33;;
59571;SDS011;74587;45.880;11.484;2023-12-20T17:04:14;12.05;;;4.25;;
59571;SDS011;74587;45.880;11.484;2023-12-20T17:06:40;9.23;;;3.50;;
59571;SDS011;74587;45.880;11.484;2023-12-20T17:09:06;8.93;;;3.78;;
59571;SDS011;74587;45.880;11.484;2023-12-20T17:11:34;11.60;;;3.97;;
59571;SDS011;74587;45.880;11.484;2023-12-20T17:14:00;9.35;;;3.72;;
59571;SDS011;74587;45.880;11.484;2023-12-20T17:16:26;6.90;;;2.28;;
59571;SDS011;74587;45.880;11.484;2023-12-20T17:18:52;36.23;;;18.97;;
59571;SDS011;74587;45.880;11.484;2023-12-20T17:21:18;7.72;;;3.15;;
59571;SDS011;74587;45.880;11.484;2023-12-20T17:23:44;6.80;;;2.30;;
59571;SDS011;74587;45.880;11.484;2023-12-20T17:26:11;8.55;;;3.60;;
59571;SDS011;74587;45.880;11.484;2023-12-20T17:28:37;12.02;;;5.85;;
59571;SDS011;74587;45.880;11.484;2023-12-20T17:31:03;7.72;;;3.22;;
59571;SDS011;74587;45.880;11.484;2023-12-20T17:33:29;8.97;;;3.17;;
59571;SDS011;74587;45.880;11.484;2023-12-20T17:35:55;11.18;;;3.90;;
59571;SDS011;74587;45.880;11.484;2023-12-20T17:38:21;10.73;;;4.20;;
59571;SDS011;74587;45.880;11.484;2023-12-20T17:40:47;12.37;;;3.93;;
59571;SDS011;74587;45.880;11.484;2023-12-20T17:43:14;19.35;;;8.00;;
59571;SDS011;74587;45.880;11.484;2023-12-20T17:45:40;14.88;;;6.03;;
59571;SDS011;74587;45.880;11.484;2023-12-20T17:48:06;9.23;;;3.77;;
59571;SDS011;74587;45.880;11.484;2023-12-20T17:50:32;9.13;;;4.20;;
59571;SDS011;74587;45.880;11.484;2023-12-20T17:52:59;11.00;;;5.68;;
59571;SDS011;74587;45.880;11.484;2023-12-20T17:55:25;8.98;;;3.30;;
59571;SDS011;74587;45.880;11.484;2023-12-20T17:57:51;7.20;;;2.47;;
59571;SDS011;74587;45.880;11.484;2023-12-20T18:00:18;8.33;;;2.10;;
59571;SDS011;74587;45.880;11.484;2023-12-20T18:02:46;7.53;;;2.03;;
59571;SDS011;74587;45.880;11.484;2023-12-20T18:05:12;6.07;;;2.20;;